createdAt,value
2022-12-03T00:02:29.820Z,18.96
2022-12-03T00:10:12.087Z,18.99
2022-12-03T00:17:40.808Z,18.98
2022-12-03T00:25:09.822Z,19.05
2022-12-03T00:32:28.308Z,19.14
2022-12-03T00:39:44.809Z,19.18
2022-12-03T00:46:21.017Z,19.48
2022-12-03T00:52:43.462Z,19.55
2022-12-03T00:59:08.923Z,19.57
2022-12-03T01:05:36.014Z,19.62
2022-12-03T01:12:05.940Z,19.57
2022-12-03T01:18:27.863Z,19.63
2022-12-03T01:24:59.865Z,19.63
2022-12-03T01:31:30.013Z,19.62
2022-12-03T01:38:03.419Z,19.64
2022-12-03T01:44:38.973Z,19.63
2022-12-03T01:51:21.686Z,19.57
2022-12-03T01:57:56.476Z,19.6
2022-12-03T02:04:30.011Z,19.56
2022-12-03T02:11:10.843Z,19.49
2022-12-03T02:17:45.932Z,19.59
2022-12-03T02:24:25.327Z,19.57
2022-12-03T02:31:01.436Z,19.47
2022-12-03T02:37:31.873Z,19.49
2022-12-03T02:44:21.745Z,19.47
2022-12-03T02:51:09.209Z,19.57
2022-12-03T02:57:41.206Z,19.52
2022-12-03T03:04:22.081Z,19.62
2022-12-03T03:10:54.067Z,19.61
2022-12-03T03:17:27.911Z,19.55
2022-12-03T03:23:56.940Z,19.56
2022-12-03T03:30:38.459Z,19.63
2022-12-03T03:37:09.212Z,19.52
2022-12-03T03:43:40.957Z,19.58
2022-12-03T03:50:07.332Z,19.53
2022-12-03T03:56:46.076Z,19.53
2022-12-03T04:03:20.007Z,19.56
2022-12-03T04:09:47.199Z,19.52
2022-12-03T04:16:13.025Z,19.53
2022-12-03T04:22:39.025Z,19.46
2022-12-03T04:29:09.829Z,19.5
2022-12-03T04:35:42.072Z,19.43
2022-12-03T04:42:13.002Z,19.46
2022-12-03T04:48:45.393Z,19.38
2022-12-03T04:55:15.477Z,19.37
2022-12-03T05:01:44.110Z,19.31
2022-12-03T05:08:12.178Z,19.34
2022-12-03T05:14:40.952Z,19.82
2022-12-03T05:21:07.241Z,20.5
2022-12-03T05:27:32.928Z,20.82
2022-12-03T05:34:01.516Z,21.18
2022-12-03T05:40:24.929Z,21.44
2022-12-03T05:46:55.134Z,21.57
2022-12-03T05:53:23.054Z,21.58
2022-12-03T05:59:52.055Z,21.78
2022-12-03T06:06:26.146Z,21.73
2022-12-03T06:12:51.919Z,21.74
2022-12-03T06:19:16.107Z,21.58
2022-12-03T06:25:44.939Z,21.71
2022-12-03T06:32:15.558Z,21.63
2022-12-03T06:38:43.210Z,21.6
2022-12-03T06:45:08.629Z,21.42
2022-12-03T06:51:33.255Z,21.3
2022-12-03T06:58:00.123Z,21.24
2022-12-03T07:04:30.979Z,21.24
2022-12-03T07:11:03.199Z,21.32
2022-12-03T07:17:34.102Z,21.29
2022-12-03T07:24:05.209Z,21.26
2022-12-03T07:30:29.238Z,21.32
2022-12-03T07:36:55.143Z,21.21
2022-12-03T07:43:20.991Z,21.43
2022-12-03T07:49:45.456Z,21.13
2022-12-03T07:56:09.416Z,21.05
2022-12-03T08:02:37.271Z,20.98
2022-12-03T08:09:15.974Z,20.9
2022-12-03T08:15:49.153Z,20.96
2022-12-03T08:22:30.045Z,21.08
2022-12-03T08:29:17.122Z,21.17
2022-12-03T08:35:59.475Z,21.16
2022-12-03T08:42:49.454Z,21.18
2022-12-03T08:49:41.132Z,21.35
2022-12-03T08:56:41.063Z,20.71
2022-12-03T09:03:51.592Z,20.73
2022-12-03T09:10:32.101Z,20.96
2022-12-03T09:16:56.436Z,21.19
2022-12-03T09:23:19.242Z,21.38
2022-12-03T09:29:41.365Z,21.42
2022-12-03T09:36:07.300Z,21.36
2022-12-03T09:42:32.169Z,21.19
2022-12-03T09:49:03.735Z,21.26
2022-12-03T09:55:51.300Z,21.21
2022-12-03T10:02:28.485Z,21.03
2022-12-03T10:08:57.403Z,21.07
2022-12-03T10:15:28.347Z,21.39
2022-12-03T10:22:13.187Z,21.46
2022-12-03T10:29:01.169Z,21.6
2022-12-03T10:35:51.211Z,21.44
2022-12-03T10:42:41.145Z,21.45
2022-12-03T10:49:14.695Z,21.33
2022-12-03T10:55:51.199Z,21.12
2022-12-03T11:02:29.575Z,21.16
2022-12-03T11:09:17.224Z,21.07
2022-12-03T11:16:11.268Z,21.05
2022-12-03T11:23:09.472Z,21.34
2022-12-03T11:29:46.139Z,21.51
2022-12-03T11:37:00.659Z,21.3
2022-12-03T11:43:49.139Z,21.51
2022-12-03T11:50:32.621Z,21.4
2022-12-03T11:57:21.389Z,21.36
2022-12-03T12:04:18.330Z,21.26
2022-12-03T12:11:01.140Z,21.11
2022-12-03T12:17:48.144Z,21.07
2022-12-03T12:24:44.278Z,20.98
2022-12-03T12:31:35.764Z,21.01
2022-12-03T12:38:21.243Z,21.01
2022-12-03T12:45:04.679Z,21.03
2022-12-03T12:51:50.497Z,21.1
2022-12-03T12:58:42.252Z,21.16
2022-12-03T13:05:39.671Z,21.18
2022-12-03T13:12:19.333Z,21.15
2022-12-03T13:19:15.346Z,21.17
2022-12-03T13:26:23.758Z,21.14
2022-12-03T13:33:17.309Z,21.15
2022-12-03T13:39:55.532Z,21.31
2022-12-03T13:46:39.723Z,21.17
2022-12-03T13:53:27.588Z,21.09
2022-12-03T14:00:08.277Z,21.04
2022-12-03T14:06:39.308Z,21.1
2022-12-03T14:13:04.554Z,21.18
2022-12-03T14:19:45.327Z,21.16
2022-12-03T14:26:08.225Z,21.13
2022-12-03T14:32:39.156Z,21.13
2022-12-03T14:39:04.543Z,21.06
2022-12-03T14:45:37.084Z,21.09
2022-12-03T14:52:12.353Z,21.09
2022-12-03T14:58:36.299Z,20.94
2022-12-03T15:05:04.349Z,21.01
2022-12-03T15:11:35.335Z,21.02
2022-12-03T15:18:07.080Z,21.13
2022-12-03T15:24:37.517Z,20.96
2022-12-03T15:31:12.245Z,20.8
2022-12-03T15:37:41.293Z,20.81
2022-12-03T15:44:10.403Z,20.65
2022-12-03T15:50:39.846Z,20.63
2022-12-03T15:57:07.292Z,20.6
2022-12-03T16:10:13.361Z,20.45
2022-12-03T16:16:38.741Z,20.4
2022-12-03T16:23:09.459Z,20.56
2022-12-03T16:29:38.115Z,20.42
2022-12-03T16:35:59.389Z,20.32
2022-12-03T16:42:45.350Z,20.33
2022-12-03T16:49:18.172Z,20.31
2022-12-03T17:02:19.412Z,20.16
2022-12-03T17:08:48.918Z,20.16
2022-12-03T17:15:21.310Z,20.14
2022-12-03T17:21:39.479Z,20.1
2022-12-03T17:28:00.468Z,20.13
2022-12-03T17:34:28.245Z,20.09
2022-12-03T17:40:59.692Z,20.12
2022-12-03T17:47:23.194Z,20.11
2022-12-03T17:53:54.122Z,20.05
2022-12-03T18:00:18.567Z,20.04
2022-12-03T18:06:49.322Z,19.96
2022-12-03T18:13:21.293Z,20.05
2022-12-03T18:19:58.840Z,20.03
2022-12-03T18:26:38.129Z,20
2022-12-03T18:33:11.267Z,19.99
2022-12-03T18:39:43.428Z,20.26
2022-12-03T18:46:25.348Z,20.26
2022-12-03T18:53:05.637Z,20.42
2022-12-03T18:59:53.766Z,20.55
2022-12-03T19:06:27.555Z,20.42
2022-12-03T19:13:00.959Z,20.43
2022-12-03T19:19:30.531Z,20.41
2022-12-03T19:25:59.600Z,20.52
2022-12-03T19:32:31.424Z,20.41
2022-12-03T19:39:05.378Z,20.54
2022-12-03T19:45:34.507Z,20.22
2022-12-03T19:52:09.515Z,20.21
2022-12-03T19:58:41.394Z,20.28
2022-12-03T20:05:18.572Z,20.26
2022-12-03T20:11:58.486Z,20
2022-12-03T20:18:36.743Z,19.99
2022-12-03T20:25:02.211Z,20.02
2022-12-03T20:31:31.549Z,20.05
2022-12-03T20:37:54.256Z,19.99
2022-12-03T20:44:24.920Z,19.96
2022-12-03T20:50:58.441Z,19.94
2022-12-03T20:57:31.488Z,20.12
2022-12-03T21:04:03.509Z,19.96
2022-12-03T21:10:31.493Z,19.88
2022-12-03T21:17:34.575Z,20.19
2022-12-03T21:24:11.936Z,19.89
2022-12-03T21:30:46.517Z,19.97
2022-12-03T21:37:12.035Z,19.79
2022-12-03T21:43:39.470Z,19.75
2022-12-03T21:50:18.365Z,20.14
2022-12-03T21:56:56.481Z,19.9
2022-12-03T22:03:25.083Z,19.96
2022-12-03T22:09:53.940Z,19.79
2022-12-03T22:16:30.555Z,19.98
2022-12-03T22:23:06.611Z,20.13
2022-12-03T22:29:42.300Z,19.92
2022-12-03T22:36:13.358Z,20.1
2022-12-03T22:42:57.489Z,20.04
2022-12-03T22:49:24.467Z,20.05
2022-12-03T22:55:58.615Z,20.12
2022-12-03T23:02:33.692Z,20.17
2022-12-03T23:08:57.573Z,20.03
2022-12-03T23:15:30.669Z,20.11
2022-12-03T23:22:09.670Z,20.07
2022-12-03T23:28:39.646Z,19.84
2022-12-03T23:35:08.524Z,19.67
2022-12-03T23:41:40.520Z,19.63
2022-12-03T23:48:08.634Z,19.58
2022-12-03T23:54:35.459Z,19.62
